createdAt,value
2022-09-21T00:00:28.589Z,101201.41
2022-09-21T00:03:31.218Z,101182.59
2022-09-21T00:06:35.867Z,101188.97
2022-09-21T00:09:38.536Z,101183.59
2022-09-21T00:12:42.008Z,101178.38
2022-09-21T00:15:44.634Z,101185.47
2022-09-21T00:18:48.512Z,101182.84
2022-09-21T00:21:55.401Z,101182.94
2022-09-21T00:24:58.985Z,101187.47
2022-09-21T00:28:02.173Z,101191.06
2022-09-21T00:31:07.549Z,101191.09
2022-09-21T00:34:10.438Z,101192.91
2022-09-21T00:37:14.460Z,101190.16
2022-09-21T00:40:17.392Z,101188.22
2022-09-21T00:43:20.620Z,101197.88
2022-09-21T00:46:28.817Z,101204.88
2022-09-21T00:49:34.525Z,101195.75
2022-09-21T00:52:43.011Z,101200.09
2022-09-21T00:55:51.873Z,101199.03
2022-09-21T00:58:55.731Z,101195.38
2022-09-21T01:02:00.043Z,101194.41
2022-09-21T01:05:04.415Z,101196.13
2022-09-21T01:08:12.338Z,101202.28
2022-09-21T01:11:28.693Z,101203.03
2022-09-21T01:14:58.083Z,101205.72
2022-09-21T01:18:10.799Z,101202.97
2022-09-21T01:21:25.217Z,101204.72
2022-09-21T01:24:51.182Z,101201.94
2022-09-21T01:28:05.319Z,101195.59
2022-09-21T01:31:15.292Z,101198.28
2022-09-21T01:34:26.818Z,101203.69
2022-09-21T01:37:36.480Z,101193.81
2022-09-21T01:40:42.395Z,101199.94
2022-09-21T01:43:50.555Z,101212.50
2022-09-21T01:46:56.663Z,101214.25
2022-09-21T01:50:03.506Z,101207.91
2022-09-21T01:53:11.275Z,101212.41
2022-09-21T01:56:19.788Z,101206.03
2022-09-21T01:59:27.776Z,101206.97
2022-09-21T02:02:38.474Z,101208.78
2022-09-21T02:05:42.980Z,101208.78
2022-09-21T02:08:46.773Z,101203.34
2022-09-21T02:11:49.733Z,101200.56
2022-09-21T02:14:55.600Z,101207.75
2022-09-21T02:18:05.692Z,101202.47
2022-09-21T02:21:17.387Z,101204.34
2022-09-21T02:24:31.974Z,101203.38
2022-09-21T02:27:44.207Z,101199.78
2022-09-21T02:30:55.417Z,101196.97
2022-09-21T02:34:04.599Z,101201.63
2022-09-21T02:37:12.852Z,101199.00
2022-09-21T02:40:26.648Z,101201.69
2022-09-21T02:43:35.241Z,101206.25
2022-09-21T02:46:42.033Z,101210.00
2022-09-21T02:49:53.607Z,101210.94
2022-09-21T02:52:57.399Z,101211.84
2022-09-21T02:56:03.902Z,101220.84
2022-09-21T02:59:08.033Z,101208.34
2022-09-21T03:02:12.473Z,101207.50
2022-09-21T03:05:16.938Z,101208.41
2022-09-21T03:08:20.242Z,101206.66
2022-09-21T03:11:22.947Z,101214.72
2022-09-21T03:14:26.142Z,101209.38
2022-09-21T03:17:28.806Z,101202.28
2022-09-21T03:20:33.464Z,101207.91
2022-09-21T03:23:36.464Z,101213.38
2022-09-21T03:26:39.520Z,101220.66
2022-09-21T03:29:42.515Z,101226.94
2022-09-21T03:32:45.347Z,101220.66
2022-09-21T03:35:50.706Z,101225.28
2022-09-21T03:38:53.363Z,101227.97
2022-09-21T03:41:57.250Z,101229.72
2022-09-21T03:45:00.351Z,101229.72
2022-09-21T03:48:03.266Z,101222.56
2022-09-21T03:51:07.382Z,101223.56
2022-09-21T03:54:10.593Z,101213.84
2022-09-21T03:57:13.563Z,101233.50
2022-09-21T04:00:16.816Z,101225.41
2022-09-21T04:03:20.807Z,101226.28
2022-09-21T04:06:25.104Z,101236.16
2022-09-21T04:09:27.971Z,101240.72
2022-09-21T04:12:31.282Z,101233.59
2022-09-21T04:15:34.094Z,101231.81
2022-09-21T04:18:37.458Z,101237.13
2022-09-21T04:21:41.845Z,101242.59
2022-09-21T04:24:44.822Z,101242.53
2022-09-21T04:27:47.896Z,101247.00
2022-09-21T04:30:54.296Z,101244.28
2022-09-21T04:33:58.758Z,101247.91
2022-09-21T04:37:02.862Z,101249.69
2022-09-21T04:40:07.153Z,101247.97
2022-09-21T04:43:10.123Z,101249.81
2022-09-21T04:46:15.035Z,101258.91
2022-09-21T04:49:17.697Z,101250.00
2022-09-21T04:52:22.001Z,101261.66
2022-09-21T04:55:25.015Z,101272.56
2022-09-21T04:58:27.837Z,101270.78
2022-09-21T05:01:30.554Z,101269.84
2022-09-21T05:04:33.505Z,101272.47
2022-09-21T05:07:37.467Z,101276.00
2022-09-21T05:10:39.365Z,101273.28
2022-09-21T05:13:42.056Z,101273.16
2022-09-21T05:16:45.102Z,101276.78
2022-09-21T05:19:47.903Z,101290.22
2022-09-21T05:22:52.176Z,101292.97
2022-09-21T05:25:54.891Z,101289.34
2022-09-21T05:28:58.337Z,101288.38
2022-09-21T05:32:08.771Z,101291.06
2022-09-21T05:35:19.406Z,101306.31
2022-09-21T05:38:24.386Z,101300.94
2022-09-21T05:41:27.621Z,101293.75
2022-09-21T05:44:30.815Z,101296.44
2022-09-21T05:47:40.222Z,101297.34
2022-09-21T05:50:50.863Z,101293.69
2022-09-21T05:54:02.746Z,101301.66
2022-09-21T05:57:12.511Z,101307.00
2022-09-21T06:00:19.239Z,101297.03
2022-09-21T06:03:29.445Z,101300.63
2022-09-21T06:06:32.370Z,101306.81
2022-09-21T06:09:40.037Z,101302.28
2022-09-21T06:12:45.725Z,101301.25
2022-09-21T06:15:48.615Z,101306.59
2022-09-21T06:18:51.294Z,101310.97
2022-09-21T06:21:53.915Z,101309.00
2022-09-21T06:24:57.986Z,101308.88
2022-09-21T06:28:04.374Z,101315.09
2022-09-21T06:31:07.055Z,101305.88
2022-09-21T06:34:10.048Z,101303.91
2022-09-21T06:37:12.768Z,101300.94
2022-09-21T06:40:17.616Z,101305.41
2022-09-21T06:43:20.799Z,101301.50
2022-09-21T06:46:23.644Z,101301.56
2022-09-21T06:49:28.912Z,101306.97
2022-09-21T06:52:31.539Z,101306.75
2022-09-21T06:55:35.861Z,101301.50
2022-09-21T06:58:39.082Z,101304.25
2022-09-21T07:01:41.794Z,101310.81
2022-09-21T07:04:44.906Z,101314.50
2022-09-21T07:07:47.667Z,101319.88
2022-09-21T07:10:51.839Z,101316.47
2022-09-21T07:13:55.292Z,101316.41
2022-09-21T07:16:57.975Z,101320.84
2022-09-21T07:20:01.941Z,101330.34
2022-09-21T07:23:11.342Z,101313.25
2022-09-21T07:26:16.278Z,101329.31
2022-09-21T07:29:18.955Z,101329.28
2022-09-21T07:32:22.301Z,101333.72
2022-09-21T07:35:24.977Z,101332.97
2022-09-21T07:38:28.068Z,101338.34
2022-09-21T07:41:32.254Z,101340.81
2022-09-21T07:44:35.310Z,101339.19
2022-09-21T07:47:37.945Z,101343.63
2022-09-21T07:50:40.777Z,101339.28
2022-09-21T07:53:45.466Z,101337.75
2022-09-21T07:57:09.480Z,101339.72
2022-09-21T08:00:12.474Z,101334.25
2022-09-21T08:03:15.122Z,101338.59
2022-09-21T08:06:17.968Z,101337.63
2022-09-21T08:09:20.717Z,101346.97
2022-09-21T08:12:24.884Z,101348.88
2022-09-21T08:15:47.684Z,101349.81
2022-09-21T08:18:51.724Z,101351.59
2022-09-21T08:21:57.585Z,101347.09
2022-09-21T08:25:01.118Z,101342.53
2022-09-21T08:28:09.606Z,101356.72
2022-09-21T08:31:12.577Z,101352.25
2022-09-21T08:34:16.257Z,101354.94
2022-09-21T08:37:19.448Z,101340.34
2022-09-21T08:40:22.436Z,101343.03
2022-09-21T08:43:32.869Z,101344.72
2022-09-21T08:46:38.088Z,101342.81
2022-09-21T08:49:44.155Z,101346.22
2022-09-21T08:52:47.952Z,101337.91
2022-09-21T08:55:50.710Z,101331.34
2022-09-21T08:58:54.754Z,101322.75
2022-09-21T09:02:05.162Z,101322.63
2022-09-21T09:05:23.881Z,101324.06
2022-09-21T09:09:00.328Z,101319.94
2022-09-21T09:12:23.472Z,101316.09
2022-09-21T09:15:49.937Z,101309.25
2022-09-21T09:18:54.478Z,101293.38
2022-09-21T09:21:57.539Z,101298.97
2022-09-21T09:25:05.345Z,101288.72
2022-09-21T09:28:21.480Z,101288.44
2022-09-21T09:31:30.549Z,101286.03
2022-09-21T09:34:37.105Z,101286.66
2022-09-21T09:37:42.276Z,101281.81
2022-09-21T09:41:02.635Z,101281.31
2022-09-21T09:44:17.672Z,101274.66
2022-09-21T09:47:32.314Z,101270.28
2022-09-21T09:50:37.314Z,101264.84
2022-09-21T09:53:40.543Z,101256.81
2022-09-21T09:56:43.591Z,101252.50
2022-09-21T09:59:54.376Z,101261.34
2022-09-21T10:03:01.109Z,101247.94
2022-09-21T10:06:03.801Z,101245.81
2022-09-21T10:09:21.424Z,101241.03
2022-09-21T10:12:27.495Z,101238.91
2022-09-21T10:15:30.810Z,101237.69
2022-09-21T10:18:39.581Z,101232.31
2022-09-21T10:21:47.594Z,101219.50
2022-09-21T10:24:54.722Z,101223.56
2022-09-21T10:27:57.900Z,101214.63
2022-09-21T10:31:23.747Z,101212.94
2022-09-21T10:34:30.175Z,101215.16
2022-09-21T10:37:35.010Z,101207.44
2022-09-21T10:40:39.032Z,101197.00
2022-09-21T10:43:44.604Z,101203.00
2022-09-21T10:46:48.683Z,101195.31
2022-09-21T10:49:55.982Z,101193.66
2022-09-21T10:53:12.225Z,101191.59
2022-09-21T10:56:18.760Z,101181.81
2022-09-21T10:59:25.178Z,101179.59
2022-09-21T11:02:36.700Z,101160.38
2022-09-21T11:05:45.459Z,101181.63
2022-09-21T11:08:56.195Z,101175.78
2022-09-21T11:12:05.261Z,101176.13
2022-09-21T11:15:18.149Z,101151.75
2022-09-21T11:18:25.964Z,101162.69
2022-09-21T11:21:37.450Z,101160.34
2022-09-21T11:24:50.209Z,101160.50
2022-09-21T11:27:57.180Z,101161.16
2022-09-21T11:31:21.070Z,101154.50
2022-09-21T11:34:39.567Z,101153.41
2022-09-21T11:37:52.375Z,101161.41
2022-09-21T11:41:14.725Z,101151.88
2022-09-21T11:44:29.716Z,101155.50
2022-09-21T11:47:47.874Z,101151.88
2022-09-21T11:51:09.762Z,101159.69
2022-09-21T11:54:37.774Z,101150.13
2022-09-21T11:57:51.604Z,101145.88
2022-09-21T12:01:12.071Z,101138.78
2022-09-21T12:04:38.252Z,101147.72
2022-09-21T12:07:58.234Z,101128.19
2022-09-21T12:11:13.253Z,101134.13
2022-09-21T12:14:23.534Z,101137.56
2022-09-21T12:17:42.131Z,101130.97
2022-09-21T12:20:50.457Z,101123.31
2022-09-21T12:23:55.978Z,101125.75
2022-09-21T12:27:11.218Z,101128.31
2022-09-21T12:30:16.991Z,101121.09
2022-09-21T12:33:26.502Z,101115.09
2022-09-21T12:36:37.025Z,101117.13
2022-09-21T12:39:48.376Z,101113.53
2022-09-21T12:43:02.019Z,101103.47
2022-09-21T12:46:09.173Z,101105.06
2022-09-21T12:49:16.726Z,101101.38
2022-09-21T12:52:23.804Z,101101.22
2022-09-21T12:55:37.418Z,101094.63
2022-09-21T12:58:51.986Z,101092.28
2022-09-21T13:02:12.221Z,101087.06
2022-09-21T13:05:23.142Z,101089.34
2022-09-21T13:08:29.712Z,101084.75
2022-09-21T13:11:33.940Z,101077.31
2022-09-21T13:14:44.453Z,101072.41
2022-09-21T13:17:47.204Z,101073.63
2022-09-21T13:20:52.170Z,101070.75
2022-09-21T13:23:58.254Z,101086.50
2022-09-21T13:27:05.254Z,101075.25
2022-09-21T13:30:32.526Z,101082.84
2022-09-21T13:33:42.055Z,101072.41
2022-09-21T13:36:44.740Z,101071.63
2022-09-21T13:39:52.198Z,101059.88
2022-09-21T13:42:54.844Z,101067.59
2022-09-21T13:45:59.453Z,101054.44
2022-09-21T13:49:07.043Z,101045.53
2022-09-21T13:52:30.767Z,101045.03
2022-09-21T13:55:35.978Z,101036.63
2022-09-21T13:58:45.904Z,101036.41
2022-09-21T14:01:51.023Z,101045.84
2022-09-21T14:04:55.632Z,101039.69
2022-09-21T14:08:02.348Z,101042.09
2022-09-21T14:11:09.650Z,101046.19
2022-09-21T14:14:22.718Z,101039.81
2022-09-21T14:17:38.099Z,101041.13
2022-09-21T14:20:42.374Z,101044.91
2022-09-21T14:24:24.808Z,101037.50
2022-09-21T14:27:31.581Z,101031.66
2022-09-21T14:30:36.862Z,101031.28
2022-09-21T14:33:47.291Z,101025.66
2022-09-21T14:36:53.246Z,101020.16
2022-09-21T14:39:57.489Z,101018.13
2022-09-21T14:43:03.580Z,101016.97
2022-09-21T14:46:32.709Z,100999.75
2022-09-21T14:49:48.253Z,101014.75
2022-09-21T14:53:08.677Z,101017.47
2022-09-21T14:56:24.112Z,101009.47
2022-09-21T14:59:40.348Z,101002.59
2022-09-21T15:02:45.558Z,101011.97
2022-09-21T15:05:56.517Z,101011.25
2022-09-21T15:09:38.709Z,101002.38
2022-09-21T15:12:55.082Z,101000.97
2022-09-21T15:16:12.795Z,100992.34
2022-09-21T15:19:22.758Z,100986.00
2022-09-21T15:22:27.583Z,100987.41
2022-09-21T15:25:34.810Z,100988.63
2022-09-21T15:29:05.095Z,100991.28
2022-09-21T15:32:03.990Z,100985.81
2022-09-21T15:35:22.577Z,100986.78
2022-09-21T15:38:30.890Z,100986.69
2022-09-21T15:41:43.269Z,100994.81
2022-09-21T15:44:48.702Z,100975.09
2022-09-21T15:47:52.110Z,100984.25
2022-09-21T15:50:58.866Z,100983.88
2022-09-21T15:54:09.689Z,100983.44
2022-09-21T15:57:29.363Z,100983.56
2022-09-21T16:00:35.514Z,100980.91
2022-09-21T16:03:39.963Z,100981.72
2022-09-21T16:06:46.777Z,100979.31
2022-09-21T16:09:51.695Z,100986.59
2022-09-21T16:13:02.079Z,100989.50
2022-09-21T16:16:05.861Z,100989.13
2022-09-21T16:19:09.836Z,100991.31
2022-09-21T16:22:13.242Z,100986.63
2022-09-21T16:25:32.575Z,100997.50
2022-09-21T16:28:38.087Z,100994.97
2022-09-21T16:31:41.207Z,101005.72
2022-09-21T16:34:45.791Z,101013.38
2022-09-21T16:37:49.229Z,101018.81
2022-09-21T16:40:54.399Z,101012.94
2022-09-21T16:43:57.276Z,101012.72
2022-09-21T16:47:02.062Z,101022.38
2022-09-21T16:50:12.735Z,101035.50
2022-09-21T16:53:15.448Z,101035.84
2022-09-21T16:56:19.970Z,101034.53
2022-09-21T16:59:23.242Z,101034.50
2022-09-21T17:02:25.969Z,101041.44
2022-09-21T17:05:29.000Z,101042.78
2022-09-21T17:08:32.698Z,101042.53
2022-09-21T17:11:36.813Z,101046.31
2022-09-21T17:14:43.054Z,101028.13
2022-09-21T17:17:49.365Z,101045.66
2022-09-21T17:20:52.431Z,101051.63
2022-09-21T17:23:55.062Z,101061.25
2022-09-21T17:26:59.164Z,101060.75
2022-09-21T17:30:03.414Z,101062.09
2022-09-21T17:33:06.522Z,101073.34
2022-09-21T17:36:13.919Z,101068.41
2022-09-21T17:39:16.615Z,101070.44
2022-09-21T17:42:25.254Z,101069.97
2022-09-21T17:45:38.950Z,101072.13
2022-09-21T17:48:42.935Z,101084.16
2022-09-21T17:52:03.489Z,101095.25
2022-09-21T17:55:08.644Z,101087.09
2022-09-21T17:58:39.862Z,101102.66
2022-09-21T18:01:42.913Z,101095.00
2022-09-21T18:04:47.255Z,101107.09
2022-09-21T18:07:51.740Z,101105.56
2022-09-21T18:11:06.888Z,101117.56
2022-09-21T18:14:21.760Z,101116.88
2022-09-21T18:17:40.307Z,101115.25
2022-09-21T18:20:53.915Z,101119.94
2022-09-21T18:24:19.874Z,101120.31
2022-09-21T18:27:24.403Z,101120.41
2022-09-21T18:30:29.159Z,101121.50
2022-09-21T18:33:45.362Z,101100.47
2022-09-21T18:36:57.564Z,101124.81
2022-09-21T18:40:11.231Z,101131.38
2022-09-21T18:43:27.558Z,101128.88
2022-09-21T18:46:40.314Z,101139.91
2022-09-21T18:49:54.558Z,101135.69
2022-09-21T18:53:03.737Z,101134.09
2022-09-21T18:56:08.346Z,101140.56
2022-09-21T18:59:13.014Z,101133.50
2022-09-21T19:02:20.728Z,101144.53
2022-09-21T19:05:24.322Z,101141.06
2022-09-21T19:08:37.588Z,101138.72
2022-09-21T19:11:46.679Z,101149.69
2022-09-21T19:14:58.952Z,101151.69
2022-09-21T19:18:15.852Z,101158.22
2022-09-21T19:21:31.700Z,101146.63
2022-09-21T19:24:46.375Z,101145.00
2022-09-21T19:27:55.734Z,101148.78
2022-09-21T19:31:04.401Z,101160.56
2022-09-21T19:34:15.682Z,101149.03
2022-09-21T19:37:18.614Z,101164.50
2022-09-21T19:40:23.638Z,101171.91
2022-09-21T19:43:31.739Z,101174.66
2022-09-21T19:46:40.624Z,101170.28
2022-09-21T19:49:49.756Z,101174.06
2022-09-21T19:53:13.337Z,101174.22
2022-09-21T19:56:35.420Z,101179.81
2022-09-21T19:59:44.754Z,101176.34
2022-09-21T20:03:02.579Z,101182.72
2022-09-21T20:06:15.282Z,101180.19
2022-09-21T20:09:25.025Z,101178.50
2022-09-21T20:12:36.102Z,101173.25
2022-09-21T20:15:44.977Z,101169.78
2022-09-21T20:18:55.098Z,101177.06
2022-09-21T20:22:04.588Z,101177.09
2022-09-21T20:25:16.530Z,101177.25
2022-09-21T20:28:20.576Z,101181.00
2022-09-21T20:31:25.809Z,101184.69
2022-09-21T20:34:28.844Z,101184.84
2022-09-21T20:37:32.888Z,101175.97
2022-09-21T20:40:35.903Z,101179.59
2022-09-21T20:43:38.690Z,101181.47
2022-09-21T20:46:41.332Z,101182.47
2022-09-21T20:49:44.601Z,101178.13
2022-09-21T20:52:49.118Z,101184.50
2022-09-21T20:55:56.734Z,101180.22
2022-09-21T20:58:59.714Z,101187.41
2022-09-21T21:02:02.467Z,101192.00
2022-09-21T21:05:05.812Z,101191.16
2022-09-21T21:08:10.693Z,101186.75
2022-09-21T21:11:14.283Z,101188.59
2022-09-21T21:14:17.406Z,101190.50
2022-09-21T21:17:20.038Z,101197.81
2022-09-21T21:20:23.760Z,101197.03
2022-09-21T21:23:28.263Z,101196.22
2022-09-21T21:26:50.643Z,101194.53
2022-09-21T21:29:55.739Z,101200.88
2022-09-21T21:32:58.506Z,101194.66
2022-09-21T21:36:06.439Z,101189.34
2022-09-21T21:39:11.231Z,101192.13
2022-09-21T21:42:13.922Z,101197.56
2022-09-21T21:45:17.010Z,101199.38
2022-09-21T21:48:20.159Z,101195.88
2022-09-21T21:51:23.265Z,101203.97
2022-09-21T21:54:27.400Z,101201.41
2022-09-21T21:57:30.463Z,101196.06
2022-09-21T22:00:33.115Z,101193.41
2022-09-21T22:03:36.546Z,101189.91
2022-09-21T22:06:40.587Z,101186.38
2022-09-21T22:09:44.960Z,101189.13
2022-09-21T22:12:47.577Z,101183.75
2022-09-21T22:15:50.919Z,101182.00
2022-09-21T22:18:54.230Z,101178.44
2022-09-21T22:21:57.727Z,101173.13
2022-09-21T22:25:02.070Z,101174.97
2022-09-21T22:28:05.499Z,101180.44
2022-09-21T22:31:11.309Z,101176.00
2022-09-21T22:34:14.956Z,101176.03
2022-09-21T22:37:17.658Z,101177.94
2022-09-21T22:40:22.950Z,101179.81
2022-09-21T22:43:26.272Z,101187.03
2022-09-21T22:46:30.952Z,101184.34
2022-09-21T22:49:34.033Z,101184.44
2022-09-21T22:52:36.668Z,101180.00
2022-09-21T22:55:41.052Z,101189.03
2022-09-21T22:58:47.370Z,101182.75
2022-09-21T23:01:50.159Z,101184.59
2022-09-21T23:04:53.287Z,101183.75
2022-09-21T23:07:57.043Z,101185.56
2022-09-21T23:11:09.060Z,101179.34
2022-09-21T23:14:13.247Z,101157.91
2022-09-21T23:17:15.906Z,101173.06
2022-09-21T23:20:19.609Z,101174.06
2022-09-21T23:23:22.259Z,101171.38
2022-09-21T23:26:27.791Z,101167.84
2022-09-21T23:29:30.818Z,101163.44
2022-09-21T23:32:33.443Z,101156.31
2022-09-21T23:35:36.711Z,101171.59
2022-09-21T23:38:39.620Z,101166.31
2022-09-21T23:41:44.838Z,101166.41
2022-09-21T23:44:47.489Z,101164.66
2022-09-21T23:47:50.691Z,101173.69
2022-09-21T23:50:53.855Z,101172.78
2022-09-21T23:53:57.073Z,101160.31
2022-09-21T23:57:01.542Z,101177.31
